createdAt,value
2018-03-29T00:00:02.090Z,0
2018-03-29T00:01:11.340Z,0
2018-03-29T00:02:20.168Z,0
2018-03-29T00:03:29.321Z,0
2018-03-29T00:04:38.149Z,0
2018-03-29T00:05:46.976Z,0
2018-03-29T00:06:55.854Z,0
2018-03-29T00:08:04.678Z,0
2018-03-29T00:09:13.508Z,0
2018-03-29T00:10:22.328Z,0
2018-03-29T00:11:31.437Z,0
2018-03-29T00:12:40.314Z,0
2018-03-29T00:13:49.422Z,0
2018-03-29T00:14:58.250Z,0
2018-03-29T00:16:07.076Z,0
2018-03-29T00:17:15.903Z,0
2018-03-29T00:18:25.158Z,0
2018-03-29T00:19:33.983Z,0
2018-03-29T00:20:42.811Z,0
2018-03-29T00:21:51.638Z,0
2018-03-29T00:23:00.464Z,0
2018-03-29T00:24:09.441Z,0
2018-03-29T00:25:18.271Z,0
2018-03-29T00:26:27.370Z,0
2018-03-29T00:27:36.200Z,0
2018-03-29T00:28:45.036Z,0
2018-03-29T00:29:53.950Z,0
2018-03-29T00:31:02.786Z,0
2018-03-29T00:32:11.614Z,0
2018-03-29T00:33:20.442Z,0
2018-03-29T00:34:29.541Z,0
2018-03-29T00:35:38.415Z,0
2018-03-29T00:36:47.243Z,0
2018-03-29T00:37:56.064Z,0
2018-03-29T00:39:04.889Z,0
2018-03-29T00:40:13.714Z,0
2018-03-29T00:41:22.865Z,0
2018-03-29T00:42:31.690Z,0
2018-03-29T00:43:40.516Z,0
2018-03-29T00:44:49.343Z,0
2018-03-29T00:45:58.446Z,0
2018-03-29T00:47:07.571Z,0
2018-03-29T00:48:16.398Z,0
2018-03-29T00:49:25.223Z,0
2018-03-29T00:50:34.049Z,0
2018-03-29T00:51:42.881Z,0
2018-03-29T00:52:51.698Z,0
2018-03-29T00:54:00.527Z,0
2018-03-29T00:55:09.354Z,0
2018-03-29T00:56:18.178Z,0
2018-03-29T00:57:27.287Z,0
2018-03-29T00:58:36.387Z,0
2018-03-29T00:59:45.214Z,0
2018-03-29T01:00:54.037Z,0
2018-03-29T01:02:03.141Z,0
2018-03-29T01:03:11.967Z,0
2018-03-29T01:04:20.793Z,0
2018-03-29T01:05:29.615Z,0
2018-03-29T01:06:38.442Z,0
2018-03-29T01:07:47.268Z,0
2018-03-29T01:08:56.092Z,0
2018-03-29T01:10:05.196Z,0
2018-03-29T01:11:14.297Z,0
2018-03-29T01:12:23.125Z,0
2018-03-29T01:13:32.225Z,0
2018-03-29T01:14:41.056Z,0
2018-03-29T01:15:49.881Z,0
2018-03-29T01:16:58.709Z,0
2018-03-29T01:18:07.535Z,0
2018-03-29T01:19:16.365Z,0
2018-03-29T01:20:25.182Z,0
2018-03-29T01:21:34.583Z,0
2018-03-29T01:22:43.408Z,0
2018-03-29T01:23:52.235Z,0
2018-03-29T01:25:01.060Z,0
2018-03-29T01:26:09.887Z,0
2018-03-29T01:27:18.861Z,0
2018-03-29T01:28:27.688Z,0
2018-03-29T01:29:36.511Z,0
2018-03-29T01:30:45.337Z,0
2018-03-29T01:31:54.161Z,0
2018-03-29T01:33:03.241Z,0
2018-03-29T01:34:12.062Z,0
2018-03-29T01:35:20.886Z,0
2018-03-29T01:36:29.711Z,0
2018-03-29T01:37:38.537Z,0
2018-03-29T01:38:47.786Z,0
2018-03-29T01:39:56.614Z,0
2018-03-29T01:41:05.438Z,0
2018-03-29T01:42:14.263Z,0
2018-03-29T01:43:23.088Z,0
2018-03-29T01:44:31.916Z,0
2018-03-29T01:45:41.022Z,0
2018-03-29T01:46:49.844Z,0
2018-03-29T01:47:58.674Z,0
2018-03-29T01:49:07.499Z,0
2018-03-29T01:50:16.376Z,0
2018-03-29T01:51:25.202Z,0
2018-03-29T01:52:34.300Z,0
2018-03-29T01:53:43.126Z,0
2018-03-29T01:54:51.952Z,0
2018-03-29T01:56:00.894Z,0
2018-03-29T01:57:09.703Z,0
2018-03-29T01:58:18.528Z,0
2018-03-29T01:59:27.355Z,0
2018-03-29T02:00:36.181Z,0
2018-03-29T02:01:45.659Z,0
2018-03-29T02:02:54.482Z,0
2018-03-29T02:04:03.309Z,0
2018-03-29T02:05:12.409Z,0
2018-03-29T02:06:21.518Z,0
2018-03-29T02:07:30.344Z,0
2018-03-29T02:08:39.168Z,0
2018-03-29T02:09:47.995Z,0
2018-03-29T02:10:56.820Z,0
2018-03-29T02:12:05.651Z,0
2018-03-29T02:13:14.576Z,0
2018-03-29T02:14:23.406Z,0
2018-03-29T02:15:32.226Z,0
2018-03-29T02:16:41.054Z,0
2018-03-29T02:17:49.880Z,0
2018-03-29T02:18:58.756Z,0
2018-03-29T02:20:07.858Z,0
2018-03-29T02:21:16.684Z,0
2018-03-29T02:22:26.085Z,0
2018-03-29T02:23:34.886Z,0
2018-03-29T02:24:43.863Z,0
2018-03-29T02:25:52.688Z,0
2018-03-29T02:27:01.512Z,0
2018-03-29T02:28:10.339Z,0
2018-03-29T02:29:19.162Z,0
2018-03-29T02:30:28.141Z,0
2018-03-29T02:31:37.249Z,0
2018-03-29T02:32:46.072Z,0
2018-03-29T02:33:55.181Z,0
2018-03-29T02:35:04.290Z,0
2018-03-29T02:36:13.375Z,0
2018-03-29T02:37:22.475Z,0
2018-03-29T02:38:31.304Z,0
2018-03-29T02:39:40.130Z,0
2018-03-29T02:40:48.958Z,0
2018-03-29T02:41:57.789Z,0
2018-03-29T02:43:06.893Z,0
2018-03-29T02:44:15.720Z,0
2018-03-29T02:45:24.549Z,0
2018-03-29T02:46:33.656Z,0
2018-03-29T02:47:42.531Z,0
2018-03-29T02:48:51.361Z,0
2018-03-29T02:50:00.466Z,0
2018-03-29T02:51:09.294Z,0
2018-03-29T02:52:18.119Z,0
2018-03-29T02:53:27.046Z,0
2018-03-29T02:54:35.873Z,0
2018-03-29T02:55:44.703Z,0
2018-03-29T02:56:53.528Z,0
2018-03-29T02:58:02.355Z,0
2018-03-29T02:59:11.610Z,0
2018-03-29T03:00:20.433Z,0
2018-03-29T03:01:29.539Z,0
2018-03-29T03:02:38.366Z,0
2018-03-29T03:03:47.473Z,0
2018-03-29T03:04:56.348Z,0
2018-03-29T03:06:05.176Z,0
2018-03-29T03:07:14.557Z,0
2018-03-29T03:08:23.386Z,0
2018-03-29T03:09:32.214Z,0
2018-03-29T03:10:41.134Z,0
2018-03-29T03:11:49.961Z,0
2018-03-29T03:12:58.791Z,0
2018-03-29T03:14:07.893Z,0
2018-03-29T03:15:16.721Z,0
2018-03-29T03:16:25.747Z,0
2018-03-29T03:17:34.581Z,0
2018-03-29T03:18:43.407Z,0
2018-03-29T03:19:52.234Z,0
2018-03-29T03:21:01.064Z,0
2018-03-29T03:22:10.189Z,0
2018-03-29T03:23:19.025Z,0
2018-03-29T03:24:27.852Z,0
2018-03-29T03:25:36.678Z,0
2018-03-29T03:26:45.507Z,0
2018-03-29T03:27:54.365Z,0
2018-03-29T03:29:03.167Z,0
2018-03-29T03:30:12.282Z,0
2018-03-29T03:31:21.388Z,0
2018-03-29T03:32:30.212Z,0
2018-03-29T03:33:39.089Z,0
2018-03-29T03:34:47.916Z,0
2018-03-29T03:35:56.744Z,0
2018-03-29T03:37:05.596Z,0
2018-03-29T03:38:14.675Z,0
2018-03-29T03:39:23.552Z,0
2018-03-29T03:40:32.377Z,0
2018-03-29T03:41:41.203Z,0
2018-03-29T03:42:50.308Z,0
2018-03-29T03:43:59.412Z,0
2018-03-29T03:45:08.388Z,0
2018-03-29T03:46:17.214Z,0
2018-03-29T03:47:26.041Z,0
2018-03-29T03:48:35.146Z,0
2018-03-29T03:49:44.246Z,0
2018-03-29T03:50:53.506Z,0
2018-03-29T03:52:02.342Z,0
2018-03-29T03:53:11.162Z,0
2018-03-29T03:54:19.988Z,0
2018-03-29T03:55:29.367Z,0
2018-03-29T03:56:38.622Z,0
2018-03-29T03:57:47.451Z,0
2018-03-29T03:58:56.278Z,0
2018-03-29T04:00:05.396Z,0
2018-03-29T04:01:14.207Z,0
2018-03-29T04:02:23.033Z,0
2018-03-29T04:03:31.861Z,0
2018-03-29T04:04:40.691Z,0
2018-03-29T04:05:49.514Z,0
2018-03-29T04:06:58.340Z,0
2018-03-29T04:08:07.419Z,0
2018-03-29T04:09:16.521Z,0
2018-03-29T04:10:25.348Z,0
2018-03-29T04:11:34.174Z,0
2018-03-29T04:12:43.004Z,0
2018-03-29T04:13:51.830Z,0
2018-03-29T04:15:00.656Z,0
2018-03-29T04:16:09.485Z,0
2018-03-29T04:17:18.867Z,0
2018-03-29T04:18:27.698Z,0
2018-03-29T04:19:36.525Z,0
2018-03-29T04:20:45.350Z,0
2018-03-29T04:21:54.459Z,0
2018-03-29T04:23:03.287Z,0
2018-03-29T04:24:12.112Z,0
2018-03-29T04:25:20.940Z,0
2018-03-29T04:26:29.772Z,0
2018-03-29T04:27:38.883Z,0
2018-03-29T04:28:47.706Z,0
2018-03-29T04:29:56.530Z,0
2018-03-29T04:31:05.358Z,0
2018-03-29T04:32:14.463Z,0
2018-03-29T04:33:23.289Z,0
2018-03-29T04:34:32.119Z,0
2018-03-29T04:35:40.950Z,0
2018-03-29T04:36:50.075Z,0
2018-03-29T04:37:58.903Z,0
2018-03-29T04:39:07.728Z,0
2018-03-29T04:40:16.555Z,0
2018-03-29T04:41:25.660Z,0
2018-03-29T04:42:34.490Z,0
2018-03-29T04:43:43.590Z,0
2018-03-29T04:44:52.417Z,4
2018-03-29T04:46:01.251Z,0
2018-03-29T04:47:10.352Z,0
2018-03-29T04:48:19.479Z,4
2018-03-29T04:49:28.309Z,4
2018-03-29T04:50:37.136Z,8
2018-03-29T04:51:45.962Z,8
2018-03-29T04:52:54.792Z,12
2018-03-29T04:54:03.670Z,12
2018-03-29T04:55:12.497Z,12
2018-03-29T04:56:21.329Z,16
2018-03-29T04:57:30.153Z,16
2018-03-29T04:58:38.981Z,16
2018-03-29T04:59:47.807Z,16
2018-03-29T05:00:56.641Z,20
2018-03-29T05:02:05.474Z,20
2018-03-29T05:03:14.297Z,28
2018-03-29T05:04:23.124Z,28
2018-03-29T05:05:32.099Z,32
2018-03-29T05:06:40.879Z,40
2018-03-29T05:07:49.706Z,32
2018-03-29T05:08:58.536Z,64
2018-03-29T05:10:07.362Z,72
2018-03-29T05:11:16.387Z,80
2018-03-29T05:12:25.220Z,108
2018-03-29T05:13:34.324Z,112
2018-03-29T05:14:43.153Z,140
2018-03-29T05:15:52.256Z,148
2018-03-29T05:17:01.234Z,148
2018-03-29T05:18:10.062Z,104
2018-03-29T05:19:18.941Z,140
2018-03-29T05:20:27.769Z,172
2018-03-29T05:21:36.598Z,184
2018-03-29T05:22:45.577Z,200
2018-03-29T05:23:54.407Z,168
2018-03-29T05:25:04.065Z,144
2018-03-29T05:26:12.896Z,184
2018-03-29T05:27:21.723Z,216
2018-03-29T05:28:31.129Z,208
2018-03-29T05:29:39.962Z,252
2018-03-29T05:30:48.786Z,308
2018-03-29T05:31:57.922Z,188
2018-03-29T05:33:06.722Z,188
2018-03-29T05:34:15.972Z,184
2018-03-29T05:35:24.806Z,236
2018-03-29T05:36:34.184Z,188
2018-03-29T05:37:43.291Z,300
2018-03-29T05:38:52.117Z,304
2018-03-29T05:40:00.996Z,356
2018-03-29T05:41:09.829Z,296
2018-03-29T05:42:18.651Z,280
2018-03-29T05:43:27.479Z,248
2018-03-29T05:44:36.306Z,288
2018-03-29T05:45:45.434Z,332
2018-03-29T05:46:54.273Z,320
2018-03-29T05:48:03.091Z,248
2018-03-29T05:49:11.916Z,292
2018-03-29T05:50:20.749Z,316
2018-03-29T05:51:29.672Z,376
2018-03-29T05:52:38.499Z,320
2018-03-29T05:53:47.330Z,408
2018-03-29T05:54:56.158Z,488
2018-03-29T05:56:05.039Z,372
2018-03-29T05:57:14.016Z,544
2018-03-29T05:58:22.848Z,608
2018-03-29T05:59:31.675Z,704
2018-03-29T06:00:40.501Z,840
2018-03-29T06:01:49.329Z,844
2018-03-29T06:02:58.310Z,884
2018-03-29T06:04:07.091Z,880
2018-03-29T06:05:15.913Z,900
2018-03-29T06:06:24.739Z,916
2018-03-29T06:07:33.566Z,984
2018-03-29T06:08:42.392Z,1012
2018-03-29T06:09:51.224Z,1044
2018-03-29T06:11:00.107Z,1184
2018-03-29T06:12:08.882Z,1084
2018-03-29T06:13:17.710Z,1040
2018-03-29T06:14:26.597Z,1060
2018-03-29T06:15:35.712Z,1112
2018-03-29T06:16:44.542Z,1084
2018-03-29T06:17:53.369Z,1104
2018-03-29T06:19:02.486Z,1128
2018-03-29T06:20:11.422Z,1060
2018-03-29T06:21:20.245Z,1084
2018-03-29T06:22:29.072Z,1116
2018-03-29T06:23:37.901Z,1388
2018-03-29T06:24:46.727Z,1296
2018-03-29T06:25:55.605Z,1292
2018-03-29T06:27:04.438Z,1284
2018-03-29T06:28:13.264Z,1380
2018-03-29T06:29:22.090Z,1344
2018-03-29T06:30:30.921Z,984
2018-03-29T06:31:39.799Z,984
2018-03-29T06:32:48.630Z,1248
2018-03-29T06:33:57.463Z,1348
2018-03-29T06:35:06.284Z,1428
2018-03-29T06:36:15.391Z,1460
2018-03-29T06:37:24.419Z,1592
2018-03-29T06:38:33.252Z,1684
2018-03-29T06:39:42.089Z,1556
2018-03-29T06:40:50.919Z,1340
2018-03-29T06:42:00.028Z,1440
2018-03-29T06:43:09.006Z,1536
2018-03-29T06:44:17.838Z,1720
2018-03-29T06:45:26.669Z,1788
2018-03-29T06:46:35.497Z,1860
2018-03-29T06:47:44.325Z,1916
2018-03-29T06:48:53.154Z,1956
2018-03-29T06:50:01.987Z,1868
2018-03-29T06:51:10.810Z,1816
2018-03-29T06:52:19.919Z,1828
2018-03-29T06:53:28.747Z,1796
2018-03-29T06:54:37.975Z,1780
2018-03-29T06:55:46.802Z,1760
2018-03-29T06:56:55.634Z,1976
2018-03-29T06:58:04.462Z,2152
2018-03-29T06:59:13.288Z,2084
2018-03-29T07:00:22.270Z,1768
2018-03-29T07:01:31.099Z,2376
2018-03-29T07:02:39.928Z,2364
2018-03-29T07:03:48.758Z,2344
2018-03-29T07:04:57.868Z,2216
2018-03-29T07:06:07.223Z,2288
2018-03-29T07:07:16.332Z,2492
2018-03-29T07:08:25.160Z,2696
2018-03-29T07:09:33.991Z,2996
2018-03-29T07:10:42.831Z,2864
2018-03-29T07:11:51.761Z,2980
2018-03-29T07:13:00.588Z,2924
2018-03-29T07:14:09.418Z,2968
2018-03-29T07:15:18.246Z,2920
2018-03-29T07:16:27.074Z,3092
2018-03-29T07:17:36.155Z,3040
2018-03-29T07:18:44.986Z,2960
2018-03-29T07:19:53.819Z,2928
2018-03-29T07:21:02.651Z,2968
2018-03-29T07:22:11.483Z,3108
2018-03-29T07:23:20.560Z,3044
2018-03-29T07:24:29.663Z,3352
2018-03-29T07:25:38.775Z,3204
2018-03-29T07:26:47.604Z,2596
2018-03-29T07:27:56.434Z,2432
2018-03-29T07:29:05.319Z,2576
2018-03-29T07:30:14.146Z,2784
2018-03-29T07:31:22.978Z,3052
2018-03-29T07:32:31.804Z,3676
2018-03-29T07:33:40.636Z,3428
2018-03-29T07:34:49.615Z,3104
2018-03-29T07:35:58.445Z,2752
2018-03-29T07:37:07.276Z,2944
2018-03-29T07:38:16.104Z,2976
2018-03-29T07:39:24.963Z,3368
2018-03-29T07:40:33.819Z,3060
2018-03-29T07:41:42.650Z,3464
2018-03-29T07:42:51.480Z,3124
2018-03-29T07:44:00.308Z,3180
2018-03-29T07:45:09.429Z,4524
2018-03-29T07:46:18.633Z,3724
2018-03-29T07:47:27.465Z,3060
2018-03-29T07:48:36.302Z,3072
2018-03-29T07:49:45.124Z,3396
2018-03-29T07:50:53.956Z,2844
2018-03-29T07:52:03.466Z,3104
2018-03-29T07:53:12.339Z,3020
2018-03-29T07:54:21.126Z,3864
2018-03-29T07:55:29.962Z,3804
2018-03-29T07:56:38.792Z,3400
2018-03-29T07:57:47.923Z,3244
2018-03-29T07:58:56.756Z,3132
2018-03-29T08:00:05.878Z,3792
2018-03-29T08:01:14.730Z,4388
2018-03-29T08:02:23.540Z,4476
2018-03-29T08:03:32.669Z,4456
2018-03-29T08:04:41.499Z,4392
2018-03-29T08:05:50.375Z,4564
2018-03-29T08:06:59.160Z,4412
2018-03-29T08:08:08.269Z,3928
2018-03-29T08:09:17.152Z,3940
2018-03-29T08:10:25.983Z,3364
2018-03-29T08:11:34.814Z,3760
2018-03-29T08:12:44.208Z,4152
2018-03-29T08:13:53.043Z,3144
2018-03-29T08:15:01.876Z,3468
2018-03-29T08:16:10.700Z,4208
2018-03-29T08:17:19.531Z,4180
2018-03-29T08:18:28.361Z,4280
2018-03-29T08:19:37.190Z,3880
2018-03-29T08:20:46.348Z,6300
2018-03-29T08:21:55.177Z,5416
2018-03-29T08:23:04.010Z,4344
2018-03-29T08:24:13.398Z,3292
2018-03-29T08:25:22.230Z,2956
2018-03-29T08:26:31.061Z,3200
2018-03-29T08:27:39.891Z,2624
2018-03-29T08:28:48.721Z,1816
2018-03-29T08:29:57.551Z,2284
2018-03-29T08:31:06.383Z,1488
2018-03-29T08:32:15.511Z,1928
2018-03-29T08:33:24.342Z,2184
2018-03-29T08:34:33.180Z,1776
2018-03-29T08:35:42.282Z,1424
2018-03-29T08:36:51.114Z,1964
2018-03-29T08:37:59.995Z,2240
2018-03-29T08:39:08.827Z,2492
2018-03-29T08:40:17.659Z,1336
2018-03-29T08:41:26.486Z,1840
2018-03-29T08:42:35.314Z,3820
2018-03-29T08:43:44.294Z,4996
2018-03-29T08:44:53.124Z,5200
2018-03-29T08:46:01.955Z,4916
2018-03-29T08:47:10.785Z,5460
2018-03-29T08:48:19.616Z,6012
2018-03-29T08:49:28.498Z,5516
2018-03-29T08:50:37.610Z,4944
2018-03-29T08:51:47.005Z,5272
2018-03-29T08:52:56.109Z,5652
2018-03-29T08:54:04.941Z,6152
2018-03-29T08:55:13.773Z,6128
2018-03-29T08:56:22.612Z,6624
2018-03-29T08:57:31.445Z,6572
2018-03-29T08:58:40.277Z,6488
2018-03-29T08:59:49.114Z,6848
2018-03-29T09:00:58.319Z,8276
2018-03-29T09:02:07.151Z,5608
2018-03-29T09:03:15.983Z,4652
2018-03-29T09:04:24.823Z,4072
2018-03-29T09:05:33.659Z,5284
2018-03-29T09:06:42.583Z,4792
2018-03-29T09:07:51.415Z,4612
2018-03-29T09:09:00.252Z,4544
2018-03-29T09:10:09.082Z,3808
2018-03-29T09:11:17.912Z,2256
2018-03-29T09:12:27.069Z,2100
2018-03-29T09:13:35.901Z,1936
2018-03-29T09:14:45.303Z,1692
2018-03-29T09:15:54.133Z,1416
2018-03-29T09:17:02.965Z,1388
2018-03-29T09:18:11.943Z,1944
2018-03-29T09:19:20.824Z,2216
2018-03-29T09:20:29.656Z,1720
2018-03-29T09:21:38.487Z,1556
2018-03-29T09:22:47.317Z,1720
2018-03-29T09:23:56.296Z,1948
2018-03-29T09:25:05.128Z,2492
2018-03-29T09:26:13.974Z,3596
2018-03-29T09:27:22.789Z,3540
2018-03-29T09:28:31.620Z,2972
2018-03-29T09:29:40.979Z,2648
2018-03-29T09:30:50.083Z,2436
2018-03-29T09:31:59.198Z,2768
2018-03-29T09:33:08.029Z,3840
2018-03-29T09:34:16.860Z,5324
2018-03-29T09:35:25.837Z,6272
2018-03-29T09:36:34.667Z,4776
2018-03-29T09:37:43.496Z,3624
2018-03-29T09:38:52.603Z,3184
2018-03-29T09:40:01.436Z,3360
2018-03-29T09:41:10.418Z,4180
2018-03-29T09:42:19.245Z,5572
2018-03-29T09:43:28.075Z,4760
2018-03-29T09:44:37.183Z,4520
2018-03-29T09:45:46.287Z,6304
2018-03-29T09:46:55.514Z,7980
2018-03-29T09:48:04.343Z,7720
2018-03-29T09:49:13.452Z,7408
2018-03-29T09:50:22.282Z,6824
2018-03-29T09:51:31.116Z,7212
2018-03-29T09:52:40.127Z,7348
2018-03-29T09:53:48.922Z,7536
2018-03-29T09:54:57.759Z,7440
2018-03-29T09:56:06.584Z,7740
2018-03-29T09:57:15.414Z,7064
2018-03-29T09:58:24.344Z,6104
2018-03-29T09:59:33.174Z,7104
2018-03-29T10:00:42.285Z,5880
2018-03-29T10:01:51.121Z,5572
2018-03-29T10:02:59.953Z,5880
2018-03-29T10:04:08.782Z,5520
2018-03-29T10:05:17.612Z,6340
2018-03-29T10:06:26.443Z,6240
2018-03-29T10:07:35.276Z,5716
2018-03-29T10:08:44.109Z,5580
2018-03-29T10:09:53.042Z,6344
2018-03-29T10:11:02.156Z,6612
2018-03-29T10:12:11.052Z,6408
2018-03-29T10:13:19.819Z,6960
2018-03-29T10:14:28.651Z,8368
2018-03-29T10:15:37.648Z,8792
2018-03-29T10:16:46.469Z,10060
2018-03-29T10:17:55.302Z,9464
2018-03-29T10:19:04.135Z,9936
2018-03-29T10:20:12.969Z,10400
2018-03-29T10:21:22.082Z,8200
2018-03-29T10:22:30.914Z,6216
2018-03-29T10:23:39.745Z,4864
2018-03-29T10:24:48.859Z,4332
2018-03-29T10:25:57.687Z,4924
2018-03-29T10:27:06.771Z,6512
2018-03-29T10:28:15.890Z,7904
2018-03-29T10:29:24.999Z,9192
2018-03-29T10:30:33.835Z,8824
2018-03-29T10:31:42.952Z,7848
2018-03-29T10:32:51.835Z,9524
2018-03-29T10:34:00.948Z,10152
2018-03-29T10:35:10.062Z,9976
2018-03-29T10:36:18.890Z,4588
2018-03-29T10:37:27.722Z,2660
2018-03-29T10:38:36.655Z,2112
2018-03-29T10:39:45.487Z,1932
2018-03-29T10:40:54.326Z,1852
2018-03-29T10:42:03.162Z,1972
2018-03-29T10:43:11.993Z,1900
2018-03-29T10:44:20.923Z,2040
2018-03-29T10:45:29.759Z,2520
2018-03-29T10:46:38.592Z,3472
2018-03-29T10:47:47.420Z,5656
2018-03-29T10:48:56.252Z,6644
2018-03-29T10:50:05.134Z,6748
2018-03-29T10:51:13.966Z,6356
2018-03-29T10:52:22.795Z,4932
2018-03-29T10:53:31.625Z,4264
2018-03-29T10:54:40.455Z,3980
2018-03-29T10:55:49.290Z,4836
2018-03-29T10:56:58.116Z,5316
2018-03-29T10:58:07.314Z,5280
2018-03-29T10:59:16.143Z,4188
2018-03-29T11:00:24.972Z,4424
2018-03-29T11:01:33.903Z,4320
2018-03-29T11:02:43.014Z,6164
2018-03-29T11:03:51.847Z,7980
2018-03-29T11:05:00.676Z,9936
2018-03-29T11:06:09.508Z,10156
2018-03-29T11:07:18.348Z,9064
2018-03-29T11:08:27.169Z,8216
2018-03-29T11:09:36.000Z,8792
2018-03-29T11:10:44.833Z,9528
2018-03-29T11:11:53.663Z,9776
2018-03-29T11:13:02.492Z,8508
2018-03-29T11:14:11.325Z,6840
2018-03-29T11:15:20.160Z,7368
2018-03-29T11:16:28.991Z,6712
2018-03-29T11:17:37.825Z,5748
2018-03-29T11:18:46.854Z,6088
2018-03-29T11:19:55.688Z,6568
2018-03-29T11:21:04.519Z,6216
2018-03-29T11:22:13.354Z,5512
2018-03-29T11:23:22.475Z,4096
2018-03-29T11:24:31.458Z,4884
2018-03-29T11:25:40.564Z,5380
2018-03-29T11:26:49.394Z,5856
2018-03-29T11:27:58.226Z,7752
2018-03-29T11:29:07.335Z,8052
2018-03-29T11:30:16.162Z,9388
2018-03-29T11:31:24.994Z,9284
2018-03-29T11:32:33.826Z,9008
2018-03-29T11:33:42.667Z,8684
2018-03-29T11:34:51.503Z,9080
2018-03-29T11:36:00.582Z,9100
2018-03-29T11:37:09.415Z,7748
2018-03-29T11:38:18.248Z,5544
2018-03-29T11:39:27.080Z,6372
2018-03-29T11:40:35.915Z,5444
2018-03-29T11:41:44.847Z,5048
2018-03-29T11:42:54.028Z,5628
2018-03-29T11:44:02.861Z,6532
2018-03-29T11:45:11.699Z,6664
2018-03-29T11:46:20.529Z,8000
2018-03-29T11:47:29.515Z,4588
2018-03-29T11:48:38.347Z,2888
2018-03-29T11:49:47.184Z,2688
2018-03-29T11:50:56.289Z,2444
2018-03-29T11:52:05.120Z,2360
2018-03-29T11:53:14.358Z,2452
2018-03-29T11:54:23.184Z,1892
2018-03-29T11:55:32.015Z,1668
2018-03-29T11:56:40.844Z,1836
2018-03-29T11:57:49.684Z,2076
2018-03-29T11:58:58.609Z,2136
2018-03-29T12:00:07.443Z,3052
2018-03-29T12:01:16.277Z,4584
2018-03-29T12:02:25.110Z,3568
2018-03-29T12:03:33.940Z,3712
2018-03-29T12:04:43.029Z,4412
2018-03-29T12:05:51.855Z,4000
2018-03-29T12:07:00.686Z,4232
2018-03-29T12:08:09.519Z,5168
2018-03-29T12:09:18.636Z,4168
2018-03-29T12:10:27.621Z,4464
2018-03-29T12:11:36.459Z,4212
2018-03-29T12:12:45.282Z,5092
2018-03-29T12:13:54.114Z,7888
2018-03-29T12:15:03.224Z,6644
2018-03-29T12:16:12.711Z,5432
2018-03-29T12:17:21.540Z,5732
2018-03-29T12:18:30.671Z,6412
2018-03-29T12:19:39.784Z,9404
2018-03-29T12:20:48.893Z,14988
2018-03-29T12:21:57.875Z,18624
2018-03-29T12:23:06.709Z,16800
2018-03-29T12:24:15.540Z,19136
2018-03-29T12:25:24.650Z,40576
2018-03-29T12:26:33.483Z,18912
2018-03-29T12:27:42.319Z,10096
2018-03-29T12:28:51.157Z,8212
2018-03-29T12:29:59.988Z,7444
2018-03-29T12:31:08.822Z,5768
2018-03-29T12:32:17.658Z,4428
2018-03-29T12:33:26.893Z,4100
2018-03-29T12:34:36.003Z,3420
2018-03-29T12:35:44.839Z,3096
2018-03-29T12:36:53.673Z,3372
2018-03-29T12:38:02.510Z,2952
2018-03-29T12:39:11.450Z,2236
2018-03-29T12:40:20.284Z,1992
2018-03-29T12:41:29.117Z,2224
2018-03-29T12:42:37.953Z,2712
2018-03-29T12:43:46.788Z,3968
2018-03-29T12:44:56.014Z,4004
2018-03-29T12:46:04.803Z,3680
2018-03-29T12:47:13.636Z,3976
2018-03-29T12:48:22.488Z,5244
2018-03-29T12:49:31.598Z,5744
2018-03-29T12:50:40.632Z,5644
2018-03-29T12:51:49.742Z,5140
2018-03-29T12:52:58.576Z,6236
2018-03-29T12:54:07.411Z,10228
2018-03-29T12:55:16.244Z,12660
2018-03-29T12:56:25.604Z,16224
2018-03-29T12:57:34.722Z,11220
2018-03-29T12:58:43.561Z,11108
2018-03-29T12:59:52.394Z,11844
2018-03-29T13:01:01.229Z,11824
2018-03-29T13:02:10.210Z,15624
2018-03-29T13:03:19.042Z,20864
2018-03-29T13:04:27.876Z,16480
2018-03-29T13:05:36.711Z,16448
2018-03-29T13:06:45.544Z,12700
2018-03-29T13:07:54.679Z,11524
2018-03-29T13:09:03.511Z,12512
2018-03-29T13:10:12.344Z,11824
2018-03-29T13:11:21.178Z,11572
2018-03-29T13:12:30.298Z,10276
2018-03-29T13:13:39.181Z,10540
2018-03-29T13:14:48.291Z,11164
2018-03-29T13:15:57.126Z,12260
2018-03-29T13:17:05.963Z,31168
2018-03-29T13:18:14.797Z,36224
2018-03-29T13:19:23.688Z,31360
2018-03-29T13:20:32.524Z,25312
2018-03-29T13:21:41.639Z,11044
2018-03-29T13:22:50.474Z,12288
2018-03-29T13:23:59.311Z,9896
2018-03-29T13:25:08.219Z,9752
2018-03-29T13:26:17.308Z,9356
2018-03-29T13:27:26.146Z,9544
2018-03-29T13:28:35.018Z,11012
2018-03-29T13:29:43.821Z,18912
2018-03-29T13:30:52.757Z,17568
2018-03-29T13:32:01.548Z,10972
2018-03-29T13:33:10.381Z,15832
2018-03-29T13:34:19.219Z,26272
2018-03-29T13:35:28.057Z,29888
2018-03-29T13:36:37.207Z,28384
2018-03-29T13:37:45.979Z,25184
2018-03-29T13:38:54.819Z,30976
2018-03-29T13:40:03.948Z,33408
2018-03-29T13:41:12.788Z,26496
2018-03-29T13:42:21.752Z,28448
2018-03-29T13:43:30.516Z,28608
2018-03-29T13:44:39.354Z,35040
2018-03-29T13:45:48.470Z,44736
2018-03-29T13:46:57.313Z,37440
2018-03-29T13:48:06.426Z,41536
2018-03-29T13:49:15.266Z,44064
2018-03-29T13:50:24.106Z,24224
2018-03-29T13:51:32.944Z,25408
2018-03-29T13:52:41.786Z,16928
2018-03-29T13:53:50.925Z,22144
2018-03-29T13:54:59.765Z,29696
2018-03-29T13:56:08.883Z,10152
2018-03-29T13:57:17.727Z,7516
2018-03-29T13:58:26.567Z,30336
2018-03-29T13:59:35.402Z,8588
2018-03-29T14:00:44.241Z,26496
2018-03-29T14:01:53.360Z,23072
2018-03-29T14:03:02.202Z,21856
2018-03-29T14:04:11.345Z,22848
2018-03-29T14:05:20.254Z,26016
2018-03-29T14:06:29.090Z,16352
2018-03-29T14:07:37.933Z,35264
2018-03-29T14:08:46.768Z,41184
2018-03-29T14:09:55.609Z,42976
2018-03-29T14:11:04.826Z,44032
2018-03-29T14:12:13.664Z,37248
2018-03-29T14:13:22.555Z,45536
2018-03-29T14:14:31.395Z,48192
2018-03-29T14:15:40.234Z,42816
2018-03-29T14:16:49.278Z,38208
2018-03-29T14:17:58.122Z,35264
2018-03-29T14:19:06.961Z,34464
2018-03-29T14:20:15.806Z,8456
2018-03-29T14:21:24.650Z,7252
2018-03-29T14:22:33.491Z,6720
2018-03-29T14:23:42.333Z,6972
2018-03-29T14:24:51.174Z,12160
2018-03-29T14:26:00.016Z,8144
2018-03-29T14:27:08.856Z,7420
2018-03-29T14:28:17.847Z,6240
2018-03-29T14:29:26.688Z,4968
2018-03-29T14:30:35.525Z,4600
2018-03-29T14:31:44.640Z,4452
2018-03-29T14:32:53.480Z,3756
2018-03-29T14:34:02.418Z,3008
2018-03-29T14:35:11.540Z,2644
2018-03-29T14:36:20.382Z,2472
2018-03-29T14:37:29.218Z,2468
2018-03-29T14:38:38.055Z,2328
2018-03-29T14:39:46.989Z,1888
2018-03-29T14:40:55.827Z,1736
2018-03-29T14:42:04.952Z,1468
2018-03-29T14:43:13.786Z,1232
2018-03-29T14:44:22.910Z,992
2018-03-29T14:45:31.855Z,792
2018-03-29T14:46:40.684Z,572
2018-03-29T14:47:49.519Z,520
2018-03-29T14:48:58.355Z,436
2018-03-29T14:50:07.188Z,420
2018-03-29T14:51:16.174Z,380
2018-03-29T14:52:25.009Z,340
2018-03-29T14:53:33.843Z,340
2018-03-29T14:54:42.679Z,312
2018-03-29T14:55:51.515Z,296
2018-03-29T14:57:00.776Z,268
2018-03-29T14:58:09.609Z,292
2018-03-29T14:59:18.448Z,288
2018-03-29T15:00:27.281Z,308
2018-03-29T15:01:36.114Z,304
2018-03-29T15:02:45.046Z,316
2018-03-29T15:03:53.879Z,344
2018-03-29T15:05:02.710Z,400
2018-03-29T15:06:11.542Z,428
2018-03-29T15:07:20.376Z,456
2018-03-29T15:08:29.305Z,480
2018-03-29T15:09:38.138Z,500
2018-03-29T15:10:46.969Z,500
2018-03-29T15:11:56.076Z,528
2018-03-29T15:13:04.908Z,544
2018-03-29T15:14:13.991Z,604
2018-03-29T15:15:22.868Z,680
2018-03-29T15:16:31.700Z,824
2018-03-29T15:17:40.532Z,992
2018-03-29T15:18:49.362Z,1156
2018-03-29T15:19:58.521Z,1092
2018-03-29T15:21:07.360Z,1012
2018-03-29T15:22:16.461Z,892
2018-03-29T15:23:25.294Z,808
2018-03-29T15:24:34.126Z,700
2018-03-29T15:25:42.957Z,604
2018-03-29T15:26:51.789Z,592
2018-03-29T15:28:00.626Z,776
2018-03-29T15:29:09.457Z,1060
2018-03-29T15:30:18.566Z,924
2018-03-29T15:31:27.601Z,916
2018-03-29T15:32:36.434Z,900
2018-03-29T15:33:45.264Z,852
2018-03-29T15:34:54.095Z,872
2018-03-29T15:36:02.925Z,1016
2018-03-29T15:37:12.030Z,1172
2018-03-29T15:38:21.138Z,1312
2018-03-29T15:39:29.970Z,1072
2018-03-29T15:40:38.803Z,748
2018-03-29T15:41:48.196Z,644
2018-03-29T15:42:57.710Z,652
2018-03-29T15:44:06.816Z,720
2018-03-29T15:45:15.645Z,912
2018-03-29T15:46:24.484Z,1208
2018-03-29T15:47:33.595Z,2428